Schefield, North Dakota
Current Conditions -  °F | °C
As of 1:56 PM on Tuesday 25 Nov 2014 (Local Time) from KDIK Reporting Station
Overcast Overcast  
Wind Chill: 26°   Ceiling: 2300
Heat Index: 36°   Visibility: 10mi
Dew Point: 32°   Wind: 18mph
Humidity: 86%   Direction: 290°WNW
Pressure: 29.66"   Gusts: NA
Location:  46.4704°N, 102.78°W
Report Text: KDIK 252056Z AUTO 29016KT 10SM FEW014 OVC023 02/00 A2966 RMK AO2 SLP070 60000 T00220000 55001
Loading
Personal Weather Stations






























Interactive Weather Map New forecast layout! Learn more

10-Day Weather Forecast

Advertisements
Track Severe Weather on mobile